Wausau Downtown Airport
KAUW : now visible

Airfield :











YOU CAN JOIN US ON...

 
LOGIN :

Register | Disclaimer

   EN    FR    IT 

 









Legend :    VFR   Marginal VFR   IFR   Intensive IFR   Very Intensive IFR
Visi :
Ceiling :
>= 8 km
>= 3000ft
5 to 8 km
1000 to 3000 ft
1500m to 5 km
500 to 1000 ft
800 to 1500m
200 to 500 ft
< 800m
< 200 ft
Symbols :   Thunderstorms  Fog  Heavy snow  Heavy precipitations  Wind > 20 kt






- Airport Elevation : 1201 ft


KAUW - Wausau Downtown

CURRENT METAR :
  • 211954Z AUTO 26012G19KT 10SM FEW050 SCT070 05/M06 A3003 RMK AO2 SLP185 T00501061

EXPIRED METARs :
  • 211854Z AUTO VRB03KT 10SM FEW045 SCT060 BKN090 04/M05 A3003 RMK AO2 SNB19E28 SLP186 P0000 T00391050
  • 211754Z AUTO 10SM BKN039 OVC055 04/M07 A3005 RMK AO2 SNB20E29 SLP191 P0000 60000 T00391067 10050 21011 58013

TAF KAUW
Valid from the 21 at 18:00 until the 22 at 18:00 UTC


211738Z 2118/2218 30006KT P6SM SCT025 BKN050
TEMPO 2118/2121 3SM -SHSN BKN025
FM212100 29010G15KT P6SM BKN060
TEMPO 2121/2124 3SM -SHSN BKN025
FM220000 28005KT P6SM SCT060
FM221400 27011G17KT P6SM SKC
KZMP FIR / North America



MET'MAP, your aeronautical weather chart ! - Copyright ORBIFLY December 2007 - Disclaimer

ORBIFLY MET'MAP TEAM :

Programming & Development : Alexandra Zaïnal
Concept & original design : Baudouin d'Aumeries
Assistance for programming : Marc-Olivier Méhu
Technical & hardware support : Manuel Goepfert

Contact : metmap@orbifly.com




SOURCES & CREDITS :

   NOAA       Earth
Advisory